createdAt,value
2023-02-27T00:01:50.330Z,4.25
2023-02-27T00:06:54.196Z,4.25
2023-02-27T00:11:57.782Z,4.12
2023-02-27T00:17:00.911Z,4.19
2023-02-27T00:22:03.879Z,4.30
2023-02-27T00:27:06.861Z,4.35
2023-02-27T00:32:10.217Z,4.48
2023-02-27T00:37:14.255Z,4.47
2023-02-27T00:42:17.620Z,4.65
2023-02-27T00:47:22.972Z,4.69
2023-02-27T00:52:27.162Z,4.66
2023-02-27T00:57:31.101Z,4.79
2023-02-27T01:02:35.292Z,4.76
2023-02-27T01:07:38.903Z,4.93
2023-02-27T01:12:42.987Z,4.97
2023-02-27T01:17:48.233Z,4.90
2023-02-27T01:22:51.939Z,5.15
2023-02-27T01:27:54.927Z,5.34
2023-02-27T01:32:58.706Z,5.16
2023-02-27T01:38:02.170Z,5.06
2023-02-27T01:43:06.484Z,5.05
2023-02-27T01:48:10.092Z,5.07
2023-02-27T01:53:15.210Z,5.02
2023-02-27T01:58:18.972Z,5.13
2023-02-27T02:03:34.493Z,5.18
2023-02-27T02:08:42.987Z,5.24
2023-02-27T02:13:50.097Z,5.28
2023-02-27T02:19:15.120Z,5.25
2023-02-27T02:24:30.895Z,5.25
2023-02-27T02:29:45.782Z,5.73
2023-02-27T02:35:12.291Z,5.88
2023-02-27T02:40:41.985Z,5.83
2023-02-27T02:46:19.430Z,5.83
2023-02-27T02:51:44.834Z,5.48
2023-02-27T02:56:52.824Z,5.07
2023-02-27T03:02:10.649Z,4.82
2023-02-27T03:07:43.007Z,4.77
2023-02-27T03:12:52.217Z,4.74
2023-02-27T03:18:10.310Z,4.86
2023-02-27T03:23:28.961Z,4.87
2023-02-27T03:28:36.848Z,4.97
2023-02-27T03:33:52.570Z,4.93
2023-02-27T03:39:05.840Z,5.05
2023-02-27T03:44:24.762Z,5.21
2023-02-27T03:49:30.079Z,5.28
2023-02-27T03:54:38.067Z,5.27
2023-02-27T03:59:41.389Z,5.42
2023-02-27T04:04:45.013Z,5.28
2023-02-27T04:10:16.819Z,5.44
2023-02-27T04:15:33.457Z,5.42
2023-02-27T04:20:56.496Z,5.52
2023-02-27T04:26:09.327Z,5.58
2023-02-27T04:31:44.193Z,5.62
2023-02-27T04:36:57.415Z,5.59
2023-02-27T04:42:12.549Z,5.46
2023-02-27T04:47:18.091Z,5.40
2023-02-27T04:52:32.302Z,5.50
2023-02-27T04:57:41.502Z,5.42
2023-02-27T05:02:49.860Z,5.30
2023-02-27T05:07:58.799Z,5.38
2023-02-27T05:13:20.271Z,5.47
2023-02-27T05:18:25.114Z,5.44
2023-02-27T05:23:58.846Z,5.47
2023-02-27T05:29:06.715Z,5.48
2023-02-27T05:34:32.153Z,5.57
2023-02-27T05:39:38.845Z,5.59
2023-02-27T05:44:52.100Z,5.83
2023-02-27T05:50:18.070Z,5.92
2023-02-27T05:55:28.702Z,5.95
2023-02-27T06:00:47.198Z,6.08
2023-02-27T06:05:55.578Z,6.12
2023-02-27T06:10:59.139Z,6.29
2023-02-27T06:16:02.309Z,6.30
2023-02-27T06:21:05.733Z,6.45
2023-02-27T06:26:08.736Z,6.50
2023-02-27T06:31:11.856Z,6.64
2023-02-27T06:36:15.599Z,6.78
2023-02-27T06:41:19.421Z,6.97
2023-02-27T06:46:23.605Z,7.20
2023-02-27T06:51:27.169Z,7.42
2023-02-27T06:56:30.637Z,7.39
2023-02-27T07:01:34.182Z,7.20
2023-02-27T07:07:36.212Z,7.25
2023-02-27T07:12:00.797Z,7.42
2023-02-27T07:17:05.012Z,7.34
2023-02-27T07:22:10.050Z,7.14
2023-02-27T07:27:13.444Z,7.26
2023-02-27T07:32:17.143Z,7.11
2023-02-27T07:37:20.128Z,6.94
2023-02-27T07:42:24.143Z,7.23
2023-02-27T07:47:27.524Z,7.84
2023-02-27T07:52:31.585Z,7.76
2023-02-27T07:57:34.655Z,7.62
2023-02-27T08:02:38.622Z,7.37
2023-02-27T08:07:42.096Z,7.47
2023-02-27T08:12:45.126Z,7.28
2023-02-27T08:17:48.863Z,7.11
2023-02-27T08:22:52.171Z,6.73
2023-02-27T08:27:55.320Z,6.59
2023-02-27T08:32:58.537Z,6.41
2023-02-27T08:38:01.709Z,6.36
2023-02-27T08:43:04.718Z,6.50
2023-02-27T08:48:08.745Z,6.37
2023-02-27T08:53:12.809Z,6.40
2023-02-27T08:58:17.858Z,6.51
2023-02-27T09:03:21.798Z,6.56
2023-02-27T09:08:25.272Z,6.48
2023-02-27T09:13:28.837Z,6.42
2023-02-27T09:18:31.773Z,6.56
2023-02-27T09:23:35.509Z,7.02
2023-02-27T09:28:40.348Z,8.13
2023-02-27T09:33:44.687Z,8.51
2023-02-27T09:38:48.045Z,9.21
2023-02-27T09:43:52.593Z,11.58
2023-02-27T09:49:00.283Z,12.62
2023-02-27T09:54:05.797Z,13.14
2023-02-27T09:59:33.828Z,13.10
2023-02-27T10:05:15.555Z,12.84
2023-02-27T10:10:51.998Z,13.42
2023-02-27T10:15:55.715Z,13.63
2023-02-27T10:21:02.961Z,13.34
2023-02-27T10:26:07.165Z,12.08
2023-02-27T10:31:20.881Z,11.53
2023-02-27T10:36:33.775Z,11.99
2023-02-27T10:41:39.940Z,13.27
2023-02-27T10:46:44.453Z,13.71
2023-02-27T10:52:04.744Z,13.99
2023-02-27T10:57:36.321Z,14.52
2023-02-27T11:02:42.726Z,13.99
2023-02-27T11:07:46.525Z,14.59
2023-02-27T11:13:07.058Z,13.81
2023-02-27T11:18:21.948Z,13.82
2023-02-27T11:23:26.095Z,13.29
2023-02-27T11:28:30.771Z,14.06
2023-02-27T11:33:40.767Z,13.39
2023-02-27T11:38:53.537Z,13.54
2023-02-27T11:43:59.632Z,14.07
2023-02-27T11:49:28.969Z,13.18
2023-02-27T11:54:43.321Z,13.15
2023-02-27T12:00:06.999Z,13.58
2023-02-27T12:05:30.975Z,13.72
2023-02-27T12:10:48.848Z,13.57
2023-02-27T12:16:04.698Z,13.76
2023-02-27T12:21:33.872Z,14.07
2023-02-27T12:26:41.947Z,14.55
2023-02-27T12:31:53.622Z,14.41
2023-02-27T12:37:15.768Z,14.95
2023-02-27T12:42:37.496Z,14.82
2023-02-27T12:48:11.609Z,14.49
2023-02-27T12:53:36.077Z,14.37
2023-02-27T12:58:51.049Z,14.49
2023-02-27T13:04:22.602Z,14.59
2023-02-27T13:09:44.672Z,14.73
2023-02-27T13:14:56.267Z,14.69
2023-02-27T13:20:45.021Z,15.14
2023-02-27T13:25:52.286Z,15.00
2023-02-27T13:31:10.968Z,14.53
2023-02-27T13:36:56.810Z,14.88
2023-02-27T13:42:00.816Z,14.99
2023-02-27T13:47:48.143Z,15.21
2023-02-27T13:52:52.263Z,15.04
2023-02-27T13:57:59.023Z,15.09
2023-02-27T14:03:05.893Z,14.68
2023-02-27T14:08:30.931Z,14.83
2023-02-27T14:13:45.932Z,14.72
2023-02-27T14:18:55.250Z,14.98
2023-02-27T14:23:58.863Z,14.72
2023-02-27T14:29:02.665Z,14.75
2023-02-27T14:34:06.877Z,14.92
2023-02-27T14:39:32.701Z,14.84
2023-02-27T14:44:44.565Z,14.42
2023-02-27T14:49:48.541Z,14.75
2023-02-27T14:54:52.683Z,14.76
2023-02-27T14:59:56.192Z,14.52
2023-02-27T15:05:02.317Z,14.20
2023-02-27T15:10:08.529Z,14.27
2023-02-27T15:15:19.365Z,14.05
2023-02-27T15:20:30.295Z,13.65
2023-02-27T15:25:33.237Z,13.86
2023-02-27T15:30:36.671Z,13.75
2023-02-27T15:35:44.532Z,13.23
2023-02-27T15:40:47.699Z,13.04
2023-02-27T15:45:53.007Z,12.77
2023-02-27T15:50:59.904Z,12.56
2023-02-27T15:56:09.765Z,12.42
2023-02-27T16:01:23.014Z,12.12
2023-02-27T16:06:33.825Z,11.77
2023-02-27T16:11:38.604Z,11.42
2023-02-27T16:16:41.791Z,11.20
2023-02-27T16:22:13.505Z,10.59
2023-02-27T16:27:28.703Z,10.11
2023-02-27T16:32:39.231Z,9.52
2023-02-27T16:37:46.427Z,9.04
2023-02-27T16:42:50.912Z,8.88
2023-02-27T16:47:56.751Z,8.81
2023-02-27T16:53:00.263Z,8.45
2023-02-27T16:58:03.735Z,8.33
2023-02-27T17:03:07.652Z,8.11
2023-02-27T17:08:11.842Z,8.04
2023-02-27T17:13:15.962Z,8.00
2023-02-27T17:18:19.892Z,7.82
2023-02-27T17:23:23.796Z,7.69
2023-02-27T17:28:27.358Z,7.64
2023-02-27T17:33:32.291Z,7.40
2023-02-27T17:38:35.528Z,7.40
2023-02-27T17:43:39.137Z,7.03
2023-02-27T17:48:43.069Z,7.05
2023-02-27T17:53:47.251Z,6.93
2023-02-27T17:58:50.774Z,7.01
2023-02-27T18:03:55.650Z,6.86
2023-02-27T18:08:59.314Z,6.82
2023-02-27T18:14:03.280Z,6.73
2023-02-27T18:19:07.736Z,6.63
2023-02-27T18:24:10.825Z,7.10
2023-02-27T18:29:14.716Z,7.19
2023-02-27T18:34:18.225Z,7.25
2023-02-27T18:39:23.128Z,7.52
2023-02-27T18:44:26.700Z,7.68
2023-02-27T18:49:30.410Z,7.70
2023-02-27T18:54:33.410Z,7.78
2023-02-27T18:59:38.038Z,7.83
2023-02-27T19:04:42.235Z,7.68
2023-02-27T19:09:45.656Z,7.72
2023-02-27T19:14:50.057Z,7.92
2023-02-27T19:19:53.994Z,8.00
2023-02-27T19:24:57.599Z,8.28
2023-02-27T19:30:01.794Z,8.29
2023-02-27T19:35:05.665Z,8.30
2023-02-27T19:40:11.323Z,8.32
2023-02-27T19:45:14.319Z,8.41
2023-02-27T19:50:17.723Z,8.30
2023-02-27T19:55:20.789Z,8.48
2023-02-27T20:00:25.006Z,8.62
2023-02-27T20:05:28.476Z,8.45
2023-02-27T20:10:31.501Z,8.79
2023-02-27T20:15:34.908Z,8.73
2023-02-27T20:20:40.292Z,9.07
2023-02-27T20:25:44.319Z,9.20
2023-02-27T20:30:47.271Z,9.38
2023-02-27T20:35:51.158Z,9.35
2023-02-27T20:40:58.852Z,9.63
2023-02-27T20:46:06.881Z,9.45
2023-02-27T20:51:17.642Z,9.37
2023-02-27T20:56:23.969Z,9.33
2023-02-27T21:01:28.183Z,9.04
2023-02-27T21:06:32.322Z,9.12
2023-02-27T21:11:35.880Z,9.13
2023-02-27T21:16:40.961Z,9.01
2023-02-27T21:21:44.801Z,9.10
2023-02-27T21:26:48.070Z,8.84
2023-02-27T21:31:52.382Z,8.51
2023-02-27T21:36:56.167Z,8.42
2023-02-27T21:41:59.845Z,8.24
2023-02-27T21:47:10.415Z,8.26
2023-02-27T21:52:13.805Z,8.05
2023-02-27T21:57:17.130Z,7.73
2023-02-27T22:02:20.619Z,7.62
2023-02-27T22:07:23.561Z,7.28
2023-02-27T22:12:27.254Z,7.16
2023-02-27T22:17:30.268Z,7.09
2023-02-27T22:22:34.245Z,7.36
2023-02-27T22:27:37.636Z,7.78
2023-02-27T22:32:41.198Z,8.01
2023-02-27T22:37:45.104Z,8.08
2023-02-27T22:42:50.601Z,8.32
2023-02-27T22:47:54.262Z,8.56
2023-02-27T22:52:57.246Z,8.26
2023-02-27T22:58:00.816Z,8.04
2023-02-27T23:03:04.501Z,8.08
2023-02-27T23:08:08.006Z,7.94
2023-02-27T23:13:11.520Z,8.00
2023-02-27T23:18:14.508Z,8.14
2023-02-27T23:23:18.511Z,8.15
2023-02-27T23:28:21.602Z,8.00
2023-02-27T23:33:25.557Z,8.23
2023-02-27T23:38:29.852Z,8.17
2023-02-27T23:43:34.126Z,7.92
2023-02-27T23:48:37.884Z,7.94
2023-02-27T23:53:43.172Z,7.96
2023-02-27T23:58:47.108Z,8.04
